Terminal Aerodrome Forecast
Issued by NWS

Home | Current Version | Previous Version | Text Only | Print | Product List | Glossary On
Versions: 1 2 3 4 5 6 7 8 9 10 11 12 13 14 15 16 17 18 19 20 21 22 23 24 25 26 27 28 29 30 31 32 33 34 35 36 37 38 39 40 41 42 43 44 45 46 47 48 49 50
000
FTUS45 KBOU 090508 AAA
TAFBJC
TAF AMD
KBJC 090508Z 0905/0924 VRB03KT P6SM BKN008 BKN014
     FM091000 19005KT P6SM SCT015 BKN024 BKN100
     FM091500 24006KT P6SM FEW060 SCT120 BKN200
     FM091900 16006KT P6SM SCT120 BKN200
     FM092300 23006KT P6SM FEW070 BKN120=

USA.gov is the U.S. government's official web portal to all federal, state and local government web resources and services.